CheckWX is a tool to help pilots better visualize weather data.  It is not intended as a substitute for an official pre-flight weather briefing.

03:42:43 UTC

KADS METAR
Addison Airport
Dallas, Texas, USA
Current

8 mins ago

KADS 260335Z AUTO 16008G14KT 10SM CLR 27/19 A3000 RMK AO2 T02670190
Observed
May-26 @ 03:35 UTC
Wind
  • 160° at 8 KTS
  • Gusting to 14 KTS
Visibility
10 SM
Flight Rules
VFR
Cloud Levels
  • Clear skies
Temperature
27°C / 81°F
Dewpoint
19°C / 66°F
Heat Index
28°C / 83°F
Humidity
62%
Altimeter
30" Hg
Pressure
1015.92 hPa
Previous

28 mins ago

KADS 260315Z AUTO 16011G18KT 10SM CLR 27/19 A3000 RMK AO2 T02700190
Observed
May-26 @ 03:15 UTC
Wind
  • 160° at 11 KTS
  • Gusting to 18 KTS
Visibility
10 SM
Flight Rules
VFR
Cloud Levels
  • Clear skies
Temperature
27°C / 81°F
Dewpoint
19°C / 66°F
Heat Index
28°C / 83°F
Humidity
62%
Altimeter
30" Hg
Pressure
1015.92 hPa
Previous

56 mins ago

KADS 260247Z 15013G19KT 10SM SKC 28/18 A2997
Observed
May-26 @ 02:47 UTC
Wind
  • 150° at 13 KTS
  • Gusting to 19 KTS
Visibility
10 SM
Flight Rules
VFR
Cloud Levels
  • Clear skies
Temperature
28°C / 82°F
Dewpoint
18°C / 64°F
Heat Index
29°C / 84°F
Humidity
55%
Altimeter
29.97" Hg
Pressure
1014.92 hPa